createdAt,value
2018-07-07T00:00:23.735Z,83.00
2018-07-07T00:02:52.160Z,83.30
2018-07-07T00:05:20.614Z,83.20
2018-07-07T00:07:49.488Z,82.70
2018-07-07T00:10:17.930Z,83.10
2018-07-07T00:12:46.791Z,83.40
2018-07-07T00:15:19.262Z,84.20
2018-07-07T00:17:48.844Z,85.20
2018-07-07T00:20:17.864Z,85.40
2018-07-07T00:22:46.948Z,85.60
2018-07-07T00:25:16.749Z,85.80
2018-07-07T00:27:46.396Z,85.20
2018-07-07T00:30:15.133Z,85.80
2018-07-07T00:32:43.769Z,85.40
2018-07-07T00:35:12.347Z,85.80
2018-07-07T00:37:40.960Z,85.80
2018-07-07T00:40:10.396Z,85.20
2018-07-07T00:42:39.877Z,85.80
2018-07-07T00:45:09.042Z,85.00
2018-07-07T00:47:38.201Z,85.10
2018-07-07T00:50:07.270Z,84.70
2018-07-07T00:52:35.893Z,84.30
2018-07-07T00:55:04.383Z,85.00
2018-07-07T00:57:32.880Z,86.40
2018-07-07T01:00:01.415Z,86.00
2018-07-07T01:02:29.934Z,85.40
2018-07-07T01:04:58.736Z,84.80
2018-07-07T01:07:27.905Z,84.80
2018-07-07T01:09:56.379Z,84.70
2018-07-07T01:12:25.899Z,84.30
2018-07-07T01:14:54.334Z,84.20
2018-07-07T01:17:23.242Z,84.50
2018-07-07T01:19:51.711Z,83.80
2018-07-07T01:22:20.191Z,83.80
2018-07-07T01:24:48.605Z,83.90
2018-07-07T01:27:17.406Z,83.70
2018-07-07T01:29:45.813Z,83.60
2018-07-07T01:32:14.673Z,83.60
2018-07-07T01:34:43.172Z,83.80
2018-07-07T01:37:11.740Z,83.30
2018-07-07T01:39:40.208Z,83.80
2018-07-07T01:42:08.762Z,84.10
2018-07-07T01:44:37.907Z,84.10
2018-07-07T01:47:06.807Z,84.40
2018-07-07T01:49:35.301Z,84.00
2018-07-07T01:52:04.437Z,84.00
2018-07-07T01:54:32.823Z,84.70
2018-07-07T01:57:01.295Z,84.80
2018-07-07T01:59:29.796Z,84.70
2018-07-07T02:01:59.142Z,84.80
2018-07-07T02:04:27.559Z,84.40
2018-07-07T02:06:56.397Z,84.50
2018-07-07T02:09:24.907Z,85.30
2018-07-07T02:11:53.354Z,85.10
2018-07-07T02:14:21.812Z,85.10
2018-07-07T02:16:50.384Z,85.50
2018-07-07T02:19:18.778Z,85.50
2018-07-07T02:21:47.321Z,85.40
2018-07-07T02:24:15.753Z,85.00
2018-07-07T02:26:44.332Z,84.60
2018-07-07T02:29:12.763Z,84.90
2018-07-07T02:31:41.244Z,86.10
2018-07-07T02:34:09.712Z,86.30
2018-07-07T02:36:38.160Z,86.40
2018-07-07T02:39:06.668Z,85.30
2018-07-07T02:41:36.132Z,85.00
2018-07-07T02:44:04.649Z,85.20
2018-07-07T02:46:33.157Z,85.30
2018-07-07T02:49:02.052Z,85.60
2018-07-07T02:51:30.932Z,85.20
2018-07-07T02:53:59.328Z,84.80
2018-07-07T02:56:27.966Z,85.10
2018-07-07T02:58:56.486Z,85.30
2018-07-07T03:01:24.979Z,85.30
2018-07-07T03:03:53.469Z,84.70
2018-07-07T03:06:22.008Z,85.00
2018-07-07T03:08:50.525Z,84.90
2018-07-07T03:11:19.997Z,85.20
2018-07-07T03:13:48.477Z,85.50
2018-07-07T03:16:17.362Z,85.00
2018-07-07T03:18:45.812Z,85.70
2018-07-07T03:21:15.444Z,85.60
2018-07-07T03:23:43.904Z,85.50
2018-07-07T03:26:12.377Z,85.40
2018-07-07T03:28:40.869Z,85.00
2018-07-07T03:31:10.425Z,84.90
2018-07-07T03:33:38.884Z,84.60
2018-07-07T03:36:07.837Z,84.40
2018-07-07T03:38:36.863Z,84.60
2018-07-07T03:41:06.172Z,84.10
2018-07-07T03:43:34.990Z,84.30
2018-07-07T03:46:03.653Z,84.00
2018-07-07T03:48:32.745Z,84.40
2018-07-07T03:51:02.260Z,84.10
2018-07-07T03:53:30.668Z,84.00
2018-07-07T03:55:59.200Z,84.00
2018-07-07T03:58:27.705Z,83.80
2018-07-07T04:00:57.310Z,84.00
2018-07-07T04:03:25.762Z,84.50
2018-07-07T04:05:54.395Z,84.00
2018-07-07T04:08:22.849Z,84.10
2018-07-07T04:10:52.555Z,83.90
2018-07-07T04:13:21.010Z,83.40
2018-07-07T04:15:49.611Z,83.80
2018-07-07T04:18:23.538Z,84.10
2018-07-07T04:20:52.080Z,83.70
2018-07-07T04:23:20.710Z,84.00
2018-07-07T04:25:49.219Z,84.00
2018-07-07T04:28:17.737Z,84.80
2018-07-07T04:30:46.250Z,84.60
2018-07-07T04:33:14.873Z,84.60
2018-07-07T04:35:43.300Z,84.70
2018-07-07T04:38:12.044Z,84.60
2018-07-07T04:40:40.522Z,84.90
2018-07-07T04:43:09.102Z,84.80
2018-07-07T04:45:37.616Z,84.70
2018-07-07T04:48:06.605Z,84.50
2018-07-07T04:50:35.260Z,84.50
2018-07-07T04:53:04.305Z,84.50
2018-07-07T04:55:32.732Z,84.70
2018-07-07T04:58:01.537Z,85.30
2018-07-07T05:00:30.337Z,86.10
2018-07-07T05:02:59.698Z,85.40
2018-07-07T05:05:28.304Z,85.30
2018-07-07T05:07:56.954Z,85.30
2018-07-07T05:10:25.401Z,85.20
2018-07-07T05:12:54.253Z,85.20
2018-07-07T05:15:22.735Z,85.10
2018-07-07T05:17:51.460Z,85.20
2018-07-07T05:20:19.904Z,85.30
2018-07-07T05:22:48.515Z,85.50
2018-07-07T05:25:17.032Z,85.40
2018-07-07T05:27:45.507Z,85.50
2018-07-07T05:30:13.993Z,85.60
2018-07-07T05:32:42.456Z,85.50
2018-07-07T05:35:10.936Z,85.40
2018-07-07T05:37:39.520Z,84.40
2018-07-07T05:40:08.015Z,84.60
2018-07-07T05:42:36.871Z,84.10
2018-07-07T05:45:06.248Z,83.90
2018-07-07T05:47:34.924Z,84.00
2018-07-07T05:50:03.447Z,83.60
2018-07-07T05:52:32.185Z,83.40
2018-07-07T05:55:00.993Z,82.90
2018-07-07T05:57:30.019Z,83.30
2018-07-07T05:59:58.671Z,85.00
2018-07-07T06:02:27.226Z,83.10
2018-07-07T06:04:56.461Z,83.90
2018-07-07T06:07:25.066Z,83.30
2018-07-07T06:09:53.621Z,83.60
2018-07-07T06:12:22.160Z,84.40
2018-07-07T06:14:50.709Z,83.80
2018-07-07T06:17:19.253Z,84.50
2018-07-07T06:19:47.844Z,85.30
2018-07-07T06:22:16.311Z,85.10
2018-07-07T06:24:44.770Z,84.30
2018-07-07T06:27:13.616Z,86.30
2018-07-07T06:29:42.036Z,85.40
2018-07-07T06:32:11.120Z,83.30
2018-07-07T06:37:07.763Z,83.50
2018-07-07T06:39:36.233Z,83.70
2018-07-07T06:42:04.695Z,84.40
2018-07-07T06:44:33.125Z,83.70
2018-07-07T06:47:01.692Z,83.40
2018-07-07T06:49:30.205Z,84.00
2018-07-07T06:51:58.765Z,83.60
2018-07-07T06:54:27.300Z,83.40
2018-07-07T06:56:56.919Z,83.10
2018-07-07T06:59:25.775Z,83.00
2018-07-07T07:01:54.326Z,83.30
2018-07-07T07:04:22.750Z,85.20
2018-07-07T07:06:51.220Z,83.80
2018-07-07T07:09:19.668Z,84.80
2018-07-07T07:11:48.209Z,83.70
2018-07-07T07:14:16.645Z,84.20
2018-07-07T07:16:45.522Z,83.50
2018-07-07T07:19:13.955Z,83.80
2018-07-07T07:21:42.417Z,84.00
2018-07-07T07:24:11.245Z,84.90
2018-07-07T07:26:39.727Z,84.80
2018-07-07T07:29:08.362Z,85.10
2018-07-07T07:31:36.932Z,84.40
2018-07-07T07:34:05.416Z,83.80
2018-07-07T07:36:37.853Z,82.40
2018-07-07T07:39:06.329Z,82.50
2018-07-07T07:41:35.272Z,83.20
2018-07-07T07:44:04.512Z,83.70
2018-07-07T07:46:33.517Z,83.60
2018-07-07T07:49:02.295Z,83.60
2018-07-07T07:51:31.224Z,84.40
2018-07-07T07:53:59.692Z,83.20
2018-07-07T07:56:28.567Z,81.00
2018-07-07T07:58:58.491Z,81.80
2018-07-07T08:01:28.322Z,81.30
2018-07-07T08:03:57.958Z,80.70
2018-07-07T08:06:27.136Z,80.60
2018-07-07T08:08:56.657Z,80.90
2018-07-07T08:11:25.816Z,80.40
2018-07-07T08:13:54.293Z,80.40
2018-07-07T08:16:22.814Z,81.60
2018-07-07T08:18:51.299Z,81.40
2018-07-07T08:21:19.888Z,80.80
2018-07-07T08:23:48.358Z,80.50
2018-07-07T08:26:16.834Z,80.60
2018-07-07T08:28:45.712Z,78.70
2018-07-07T08:31:14.221Z,79.40
2018-07-07T08:33:43.292Z,79.40
2018-07-07T08:36:11.738Z,77.70
2018-07-07T08:38:40.178Z,77.20
2018-07-07T08:41:09.631Z,78.40
2018-07-07T08:43:38.071Z,78.30
2018-07-07T08:46:06.531Z,75.60
2018-07-07T08:48:34.986Z,75.80
2018-07-07T08:51:03.648Z,77.40
2018-07-07T08:53:32.059Z,77.70
2018-07-07T08:56:00.572Z,77.00
2018-07-07T08:58:29.028Z,77.10
2018-07-07T09:00:58.379Z,78.40
2018-07-07T09:03:27.700Z,79.00
2018-07-07T09:05:56.974Z,77.40
2018-07-07T09:08:25.836Z,76.80
2018-07-07T09:10:56.127Z,76.90
2018-07-07T09:13:25.220Z,76.40
2018-07-07T09:15:53.897Z,75.00
2018-07-07T09:18:22.399Z,73.80
2018-07-07T09:23:19.999Z,72.50
2018-07-07T09:25:48.505Z,75.10
2018-07-07T09:28:16.936Z,72.70
2018-07-07T09:30:45.408Z,74.00
2018-07-07T09:33:13.992Z,73.90
2018-07-07T09:35:42.940Z,74.30
2018-07-07T09:38:11.380Z,74.00
2018-07-07T09:40:40.906Z,73.80
2018-07-07T09:43:09.377Z,73.40
2018-07-07T09:45:37.821Z,74.70
2018-07-07T09:48:06.623Z,75.20
2018-07-07T09:50:35.188Z,74.90
2018-07-07T09:53:03.610Z,75.30
2018-07-07T09:55:32.240Z,72.60
2018-07-07T09:58:01.072Z,73.20
2018-07-07T10:00:36.027Z,72.60
2018-07-07T10:03:04.887Z,74.30
2018-07-07T10:05:33.399Z,74.20
2018-07-07T10:08:01.853Z,73.40
2018-07-07T10:10:30.418Z,73.60
2018-07-07T10:12:58.940Z,73.00
2018-07-07T10:15:27.489Z,73.70
2018-07-07T10:17:56.009Z,74.10
2018-07-07T10:20:26.402Z,73.50
2018-07-07T10:22:55.872Z,71.00
2018-07-07T10:25:25.142Z,72.60
2018-07-07T10:27:54.044Z,70.50
2018-07-07T10:30:23.525Z,72.00
2018-07-07T10:32:52.216Z,71.50
2018-07-07T10:35:21.001Z,72.50
2018-07-07T10:37:49.494Z,68.90
2018-07-07T10:40:18.113Z,69.70
2018-07-07T10:42:46.594Z,70.50
2018-07-07T10:45:15.848Z,71.20
2018-07-07T10:47:44.318Z,72.10
2018-07-07T10:50:13.042Z,70.70
2018-07-07T10:52:41.528Z,71.80
2018-07-07T10:55:10.137Z,70.50
2018-07-07T10:57:38.636Z,71.90
2018-07-07T11:00:07.718Z,72.00
2018-07-07T11:02:36.293Z,73.30
2018-07-07T11:05:05.561Z,71.60
2018-07-07T11:07:34.028Z,73.10
2018-07-07T11:10:02.921Z,70.80
2018-07-07T11:12:31.387Z,72.20
2018-07-07T11:17:28.392Z,70.90
2018-07-07T11:19:57.188Z,71.50
2018-07-07T11:22:26.521Z,72.10
2018-07-07T11:24:55.712Z,70.90
2018-07-07T11:27:24.832Z,70.40
2018-07-07T11:29:54.164Z,69.50
2018-07-07T11:32:22.742Z,70.40
2018-07-07T11:34:51.563Z,69.80
2018-07-07T11:37:20.070Z,68.80
2018-07-07T11:39:48.707Z,69.90
2018-07-07T11:42:17.252Z,67.10
2018-07-07T11:44:46.010Z,67.90
2018-07-07T11:47:14.575Z,68.80
2018-07-07T11:49:43.075Z,69.00
2018-07-07T11:52:11.545Z,66.20
2018-07-07T11:54:40.016Z,67.10
2018-07-07T11:57:08.572Z,68.40
2018-07-07T11:59:37.426Z,68.90
2018-07-07T12:02:06.049Z,70.00
2018-07-07T12:04:34.626Z,69.20
2018-07-07T12:07:03.540Z,67.40
2018-07-07T12:09:32.441Z,68.80
2018-07-07T12:12:01.049Z,68.00
2018-07-07T12:14:29.592Z,69.10
2018-07-07T12:16:58.006Z,69.40
2018-07-07T12:19:26.586Z,68.30
2018-07-07T12:21:55.083Z,69.30
2018-07-07T12:24:24.160Z,70.50
2018-07-07T12:26:52.585Z,69.90
2018-07-07T12:29:21.247Z,70.30
2018-07-07T12:31:49.685Z,67.50
2018-07-07T12:34:18.175Z,68.80
2018-07-07T12:36:46.756Z,68.60
2018-07-07T12:39:15.523Z,68.80
2018-07-07T12:41:44.415Z,69.20
2018-07-07T12:44:13.221Z,65.60
2018-07-07T12:46:41.735Z,65.20
2018-07-07T12:49:10.500Z,65.60
2018-07-07T12:51:39.034Z,67.40
2018-07-07T12:54:07.565Z,68.10
2018-07-07T12:59:04.388Z,66.60
2018-07-07T13:01:32.797Z,68.60
2018-07-07T13:04:01.268Z,67.50
2018-07-07T13:06:30.099Z,67.90
2018-07-07T13:08:58.706Z,66.30
2018-07-07T13:11:27.536Z,66.20
2018-07-07T13:13:56.584Z,69.30
2018-07-07T13:16:25.729Z,67.40
2018-07-07T13:18:55.105Z,66.80
2018-07-07T13:21:24.192Z,66.20
2018-07-07T13:23:52.783Z,65.60
2018-07-07T13:26:21.258Z,66.60
2018-07-07T13:28:49.867Z,66.80
2018-07-07T13:31:18.587Z,65.50
2018-07-07T13:33:47.999Z,65.30
2018-07-07T13:36:16.469Z,66.10
2018-07-07T13:38:45.111Z,65.30
2018-07-07T13:41:13.744Z,65.90
2018-07-07T13:43:42.625Z,63.70
2018-07-07T13:46:11.398Z,65.20
2018-07-07T13:48:40.292Z,61.90
2018-07-07T13:51:08.708Z,64.00
2018-07-07T13:53:37.205Z,64.70
2018-07-07T13:56:06.336Z,64.80
2018-07-07T13:58:34.946Z,65.90
2018-07-07T14:02:07.030Z,64.60
2018-07-07T14:04:35.682Z,64.60
2018-07-07T14:07:04.147Z,63.90
2018-07-07T14:09:33.262Z,63.30
2018-07-07T14:12:01.894Z,63.80
2018-07-07T14:14:30.544Z,64.30
2018-07-07T14:16:59.084Z,64.10
2018-07-07T14:19:27.843Z,64.20
2018-07-07T14:24:25.698Z,62.10
2018-07-07T14:26:54.866Z,63.20
2018-07-07T14:29:23.331Z,63.40
2018-07-07T14:31:51.979Z,63.70
2018-07-07T14:34:20.832Z,63.70
2018-07-07T14:36:49.404Z,61.80
2018-07-07T14:39:18.288Z,62.10
2018-07-07T14:41:48.925Z,61.30
2018-07-07T14:44:17.571Z,62.20
2018-07-07T14:46:46.152Z,61.50
2018-07-07T14:49:15.141Z,61.40
2018-07-07T14:51:43.673Z,61.50
2018-07-07T14:54:12.253Z,61.60
2018-07-07T14:56:40.796Z,62.30
2018-07-07T14:59:09.423Z,61.30
2018-07-07T15:01:37.798Z,60.90
2018-07-07T15:04:06.420Z,59.40
2018-07-07T15:06:34.941Z,60.80
2018-07-07T15:09:04.817Z,61.20
2018-07-07T15:11:33.230Z,59.00
2018-07-07T15:14:01.826Z,59.60
2018-07-07T15:16:30.335Z,60.70
2018-07-07T15:18:58.924Z,60.00
2018-07-07T15:23:56.411Z,59.70
2018-07-07T15:26:25.468Z,57.20
2018-07-07T15:28:54.362Z,58.20
2018-07-07T15:31:22.828Z,57.90
2018-07-07T15:33:51.393Z,57.90
2018-07-07T15:36:19.880Z,58.90
2018-07-07T15:38:48.865Z,57.40
2018-07-07T15:41:17.682Z,57.90
2018-07-07T15:43:46.145Z,57.50
2018-07-07T15:46:14.546Z,58.60
2018-07-07T15:48:43.132Z,59.10
2018-07-07T15:53:40.440Z,59.20
2018-07-07T15:56:08.920Z,58.80
2018-07-07T15:58:37.445Z,59.10
2018-07-07T16:01:05.979Z,57.80
2018-07-07T16:03:34.854Z,59.60
2018-07-07T16:06:03.394Z,58.60
2018-07-07T16:08:31.888Z,59.50
2018-07-07T16:11:00.345Z,59.50
2018-07-07T16:13:28.875Z,59.90
2018-07-07T16:15:57.314Z,60.50
2018-07-07T16:18:25.962Z,60.10
2018-07-07T16:20:55.232Z,60.90
2018-07-07T16:23:24.709Z,61.30
2018-07-07T16:25:53.371Z,60.00
2018-07-07T16:28:21.986Z,60.60
2018-07-07T16:30:50.571Z,58.80
2018-07-07T16:33:19.872Z,60.20
2018-07-07T16:35:48.385Z,61.30
2018-07-07T16:38:16.942Z,61.40
2018-07-07T16:40:46.570Z,60.60
2018-07-07T16:43:15.159Z,60.40
2018-07-07T16:45:43.674Z,61.70
2018-07-07T16:48:12.359Z,61.00
2018-07-07T16:50:40.898Z,59.90
2018-07-07T16:53:09.475Z,60.40
2018-07-07T16:55:38.139Z,60.90
2018-07-07T16:58:06.658Z,61.80
2018-07-07T17:00:36.081Z,62.00
2018-07-07T17:03:05.592Z,62.80
2018-07-07T17:05:34.360Z,61.60
2018-07-07T17:08:02.989Z,62.70
2018-07-07T17:10:31.618Z,62.30
2018-07-07T17:13:00.501Z,62.10
2018-07-07T17:15:29.877Z,63.20
2018-07-07T17:17:58.414Z,61.10
2018-07-07T17:20:27.042Z,61.10
2018-07-07T17:22:56.210Z,63.10
2018-07-07T17:25:25.582Z,62.50
2018-07-07T17:27:56.094Z,64.00
2018-07-07T17:30:24.796Z,63.90
2018-07-07T17:32:55.075Z,65.40
2018-07-07T17:35:23.810Z,67.70
2018-07-07T17:38:23.788Z,66.90
2018-07-07T17:40:52.938Z,69.40
2018-07-07T17:43:21.677Z,67.60
2018-07-07T17:45:50.998Z,68.00
2018-07-07T17:48:19.709Z,67.60
2018-07-07T17:53:17.085Z,67.80
2018-07-07T17:55:45.638Z,68.00
2018-07-07T17:58:14.661Z,70.10
2018-07-07T18:00:43.444Z,69.90
2018-07-07T18:03:12.056Z,69.90
2018-07-07T18:05:40.801Z,71.30
2018-07-07T18:08:09.743Z,72.10
2018-07-07T18:10:38.315Z,72.50
2018-07-07T18:13:07.572Z,72.50
2018-07-07T18:18:04.880Z,72.60
2018-07-07T18:20:33.392Z,71.60
2018-07-07T18:23:01.875Z,71.30
2018-07-07T18:25:30.326Z,71.70
2018-07-07T18:27:59.209Z,72.70
2018-07-07T18:30:27.666Z,71.60
2018-07-07T18:32:56.477Z,71.80
2018-07-07T18:35:25.627Z,72.40
2018-07-07T18:37:55.390Z,72.80
2018-07-07T18:40:24.774Z,73.00
2018-07-07T18:42:53.967Z,72.20
2018-07-07T18:45:22.491Z,72.70
2018-07-07T18:47:50.973Z,73.80
2018-07-07T18:50:19.403Z,73.00
2018-07-07T18:52:48.042Z,72.20
2018-07-07T18:55:16.686Z,72.30
2018-07-07T18:57:45.249Z,72.80
2018-07-07T19:00:13.753Z,72.80
2018-07-07T19:02:42.258Z,72.10
2018-07-07T19:05:10.755Z,72.20
2018-07-07T19:07:39.347Z,73.30
2018-07-07T19:10:08.293Z,72.90
2018-07-07T19:12:36.771Z,71.90
2018-07-07T19:15:10.794Z,71.60
2018-07-07T19:17:39.588Z,71.50
2018-07-07T19:20:08.195Z,71.90
2018-07-07T19:22:41.999Z,71.70
2018-07-07T19:30:12.553Z,72.30
2018-07-07T19:36:19.717Z,71.60
2018-07-07T19:41:16.436Z,73.50
2018-07-07T19:43:44.879Z,72.00
2018-07-07T19:46:13.723Z,73.00
2018-07-07T19:48:42.390Z,73.10
2018-07-07T19:51:11.316Z,71.30
2018-07-07T19:53:39.906Z,72.60
2018-07-07T19:56:08.916Z,72.70
2018-07-07T19:58:37.367Z,72.20
2018-07-07T20:01:06.163Z,73.30
2018-07-07T20:03:34.629Z,72.00
2018-07-07T20:06:03.146Z,71.90
2018-07-07T20:08:31.648Z,72.20
2018-07-07T20:11:00.093Z,71.50
2018-07-07T20:13:28.940Z,71.10
2018-07-07T20:16:14.739Z,71.90
2018-07-07T20:19:03.759Z,73.20
2018-07-07T20:21:57.403Z,72.00
2018-07-07T20:24:29.599Z,73.00
2018-07-07T20:27:04.243Z,73.00
2018-07-07T20:29:33.013Z,73.00
2018-07-07T20:32:01.813Z,74.00
2018-07-07T20:34:31.279Z,73.90
2018-07-07T20:37:00.180Z,73.20
2018-07-07T20:39:28.690Z,73.50
2018-07-07T20:41:57.635Z,73.20
2018-07-07T20:44:26.152Z,72.80
2018-07-07T20:46:55.541Z,72.70
2018-07-07T20:49:24.961Z,72.50
2018-07-07T20:51:53.643Z,72.40
2018-07-07T20:54:22.164Z,72.50
2018-07-07T20:56:50.630Z,72.70
2018-07-07T20:59:19.047Z,72.70
2018-07-07T21:01:47.932Z,72.90
2018-07-07T21:04:16.507Z,73.60
2018-07-07T21:06:44.984Z,74.00
2018-07-07T21:09:13.527Z,73.00
2018-07-07T21:11:42.060Z,72.90
2018-07-07T21:16:39.341Z,73.50
2018-07-07T21:19:07.843Z,73.30
2018-07-07T21:21:36.396Z,73.90
2018-07-07T21:24:04.935Z,73.50
2018-07-07T21:26:33.424Z,73.30
2018-07-07T21:29:01.849Z,73.60
2018-07-07T21:31:30.367Z,73.90
2018-07-07T21:33:58.887Z,74.00
2018-07-07T21:36:27.710Z,73.80
2018-07-07T21:38:56.119Z,74.00
2018-07-07T21:41:25.194Z,73.90
2018-07-07T21:43:54.079Z,73.30
2018-07-07T21:46:23.673Z,73.30
2018-07-07T21:48:52.184Z,73.10
2018-07-07T21:51:20.679Z,73.00
2018-07-07T21:53:49.146Z,73.10
2018-07-07T21:56:18.176Z,73.70
2018-07-07T21:58:46.995Z,73.30
2018-07-07T22:02:38.225Z,73.30
2018-07-07T22:05:12.408Z,73.60
2018-07-07T22:10:09.899Z,73.80
2018-07-07T22:12:38.456Z,74.00
2018-07-07T22:15:07.077Z,74.20
2018-07-07T22:17:35.968Z,74.40
2018-07-07T22:20:04.490Z,74.60
2018-07-07T22:22:33.283Z,74.90
2018-07-07T22:25:01.841Z,74.70
2018-07-07T22:27:30.336Z,74.70
2018-07-07T22:29:58.961Z,75.30
2018-07-07T22:32:27.495Z,75.50
2018-07-07T22:35:00.806Z,75.40
2018-07-07T22:37:29.468Z,75.80
2018-07-07T22:39:58.016Z,75.60
2018-07-07T22:42:27.391Z,75.70
2018-07-07T22:44:56.896Z,75.90
2018-07-07T22:47:26.047Z,75.20
2018-07-07T22:49:54.570Z,75.00
2018-07-07T22:52:23.049Z,75.10
2018-07-07T22:54:51.572Z,74.70
2018-07-07T22:57:20.088Z,74.70
2018-07-07T22:59:48.641Z,74.90
2018-07-07T23:02:18.125Z,75.60
2018-07-07T23:04:46.812Z,75.70
2018-07-07T23:07:15.384Z,75.60
2018-07-07T23:09:43.899Z,75.00
2018-07-07T23:12:12.385Z,75.40
2018-07-07T23:14:40.956Z,75.50
2018-07-07T23:17:09.767Z,75.90
2018-07-07T23:19:38.476Z,76.00
2018-07-07T23:22:07.468Z,75.10
2018-07-07T23:24:36.419Z,75.40
2018-07-07T23:27:05.587Z,75.80
2018-07-07T23:29:34.240Z,75.40
2018-07-07T23:32:02.694Z,75.40
2018-07-07T23:34:31.432Z,75.80
2018-07-07T23:36:59.878Z,75.90
2018-07-07T23:39:28.427Z,76.00
2018-07-07T23:41:56.923Z,75.80
2018-07-07T23:44:25.584Z,75.80
2018-07-07T23:46:54.066Z,75.80
2018-07-07T23:49:22.575Z,76.00
2018-07-07T23:51:51.140Z,75.90
2018-07-07T23:54:19.912Z,75.90
2018-07-07T23:56:48.528Z,76.20
2018-07-07T23:59:16.999Z,76.50
